Dades meteomassalio
Diari Summary for Setembre 2, 2017 Units:  English    Metric   Both
« Previous Day
Next Day »
Diari Semanal Mensual Anual Personalitzat
  Maxima: Minima: Mijana:
Temperatura: TemperatureC °F 12.2 °F 18.2 °F
Rosada: DewpointC °F 4.5 °F 9.2 °F
Humitat: Humidity % 38 % 57 %
Velocitat del vent: WindSpeedKMH mph 0.0 mph 25.2 mph
Racha vent: WindSpeedGustKMH mph - -
Vent:- - SW
Pressio: PressurehPa in 1020.9 in -
Pluja: 0.0 in    
Historical Graphs
 
 
Tabular Data for Setembre 2, 2017
Time Temperature Dew Point Pressure Wind Wind Speed Wind Gust Humidity Rainfall Rate (Hourly) solar Conditions
TemperatureC °F DewpointC °F PressurehPa in Calm     Humidity % HourlyPrecipMM in SolarRadiationWatts/m^2 W/m2 Conditions
00:01 17.8 °F 9.7 °F 1023.2 in SSW 31.5 mph 31.5 mph 59 % 0.0 in 0.0 W/m2 CLR
00:06 17.8 °F 9.7 °F 1023.2 in SW 33.3 mph 33.3 mph 59 % 0.0 in 0.0 W/m2 CLR
00:11 17.2 °F 9.1 °F 1023.2 in SW 33.8 mph 33.8 mph 59 % 0.0 in 0.0 W/m2 CLR
00:16 17.2 °F 9.1 °F 1023.2 in SSW 31.5 mph 31.5 mph 59 % 0.0 in 0.0 W/m2 CLR
00:21 17.2 °F 9.1 °F 1023.2 in SSW 38.9 mph 38.9 mph 59 % 0.0 in 0.0 W/m2 CLR
00:26 17.2 °F 9.1 °F 1023.2 in SW 38.9 mph 38.9 mph 59 % 0.0 in 0.0 W/m2 CLR
00:31 17.2 °F 9.1 °F 1023.2 in SW 33.3 mph 33.3 mph 59 % 0.0 in 0.0 W/m2 CLR
00:36 17.2 °F 9.1 °F 1023.2 in SW 32.2 mph 32.2 mph 59 % 0.0 in 0.0 W/m2 CLR
00:41 17.2 °F 9.4 °F 1023.6 in SW 31.5 mph 31.5 mph 60 % 0.0 in 0.0 W/m2 CLR
00:46 16.7 °F 8.9 °F 1023.2 in SSW 35.2 mph 35.2 mph 60 % 0.0 in 0.0 W/m2 CLR
00:51 16.7 °F 8.9 °F 1023.6 in SW 37.0 mph 37.0 mph 60 % 0.0 in 0.0 W/m2 CLR
00:56 16.7 °F 8.9 °F 1023.6 in SSW 38.9 mph 38.9 mph 60 % 0.0 in 0.0 W/m2 CLR
01:01 16.7 °F 8.9 °F 1023.6 in SSW 42.6 mph 42.6 mph 60 % 0.0 in 0.0 W/m2 CLR
01:06 16.7 °F 9.1 °F 1023.6 in SSW 27.8 mph 27.8 mph 61 % 0.0 in 0.0 W/m2 CLR
01:11 16.7 °F 9.1 °F 1023.6 in SSW 31.5 mph 31.5 mph 61 % 0.0 in 0.0 W/m2 CLR
01:16 16.7 °F 9.3 °F 1023.6 in SSW 38.9 mph 38.9 mph 62 % 0.0 in 0.0 W/m2 CLR
01:21 16.7 °F 9.3 °F 1023.6 in SW 40.7 mph 40.7 mph 62 % 0.0 in 0.0 W/m2 CLR
01:26 16.7 °F 9.3 °F 1023.6 in SSW 37.0 mph 37.0 mph 62 % 0.0 in 0.0 W/m2 CLR
01:31 16.1 °F 9.1 °F 1023.6 in South 33.3 mph 33.3 mph 63 % 0.0 in 0.0 W/m2 CLR
01:36 16.1 °F 9.1 °F 1023.2 in SW 33.3 mph 33.3 mph 63 % 0.0 in 0.0 W/m2 CLR
01:41 16.1 °F 9.3 °F 1023.6 in SSW 32.2 mph 32.2 mph 64 % 0.0 in 0.0 W/m2 CLR
01:46 16.1 °F 9.3 °F 1023.6 in SSW 37.0 mph 37.0 mph 64 % 0.0 in 0.0 W/m2 CLR
01:51 16.1 °F 9.5 °F 1023.6 in SSW 33.3 mph 33.3 mph 65 % 0.0 in 0.0 W/m2 CLR
01:56 16.1 °F 9.5 °F 1023.6 in SSW 35.2 mph 35.2 mph 65 % 0.0 in 0.0 W/m2 CLR
02:01 16.1 °F 9.8 °F 1023.6 in SSW 31.5 mph 31.5 mph 66 % 0.0 in 0.0 W/m2 CLR
02:06 16.1 °F 9.8 °F 1023.6 in SSW 31.5 mph 31.5 mph 66 % 0.0 in 0.0 W/m2 CLR
02:12 16.1 °F 9.8 °F 1023.6 in SSW 24.1 mph 24.9 mph 66 % 0.0 in 0.0 W/m2 CLR
02:17 16.1 °F 9.8 °F 1023.6 in SW 40.7 mph 40.7 mph 66 % 0.0 in 0.0 W/m2 CLR
02:22 16.1 °F 9.8 °F 1023.9 in SW 33.3 mph 33.3 mph 66 % 0.0 in 0.0 W/m2 CLR
02:27 16.1 °F 9.8 °F 1023.6 in SSW 33.3 mph 33.3 mph 66 % 0.0 in 0.0 W/m2 CLR
02:32 16.1 °F 9.8 °F 1023.9 in SW 33.8 mph 33.8 mph 66 % 0.0 in 0.0 W/m2 CLR
02:37 16.1 °F 9.8 °F 1023.9 in SSW 35.2 mph 35.2 mph 66 % 0.0 in 0.0 W/m2 CLR
02:42 15.6 °F 9.4 °F 1023.9 in SSW 33.8 mph 33.8 mph 67 % 0.0 in 0.0 W/m2 CLR
02:47 15.6 °F 9.4 °F 1023.6 in SSW 29.6 mph 29.6 mph 67 % 0.0 in 0.0 W/m2 CLR
02:52 15.6 °F 9.4 °F 1023.9 in SSW 31.5 mph 31.5 mph 67 % 0.0 in 0.0 W/m2 CLR
02:57 15.6 °F 9.4 °F 1023.6 in SSW 31.5 mph 31.5 mph 67 % 0.0 in 0.0 W/m2 CLR
03:02 15.6 °F 9.4 °F 1023.6 in SSW 31.5 mph 31.5 mph 67 % 0.0 in 0.0 W/m2 CLR
03:07 15.6 °F 9.4 °F 1023.9 in SSW 25.9 mph 25.9 mph 67 % 0.0 in 0.0 W/m2 CLR
03:12 15.6 °F 9.4 °F 1023.9 in SSW 29.6 mph 29.6 mph 67 % 0.0 in 0.0 W/m2 CLR
03:17 15.6 °F 9.4 °F 1023.9 in South 42.6 mph 42.6 mph 67 % 0.0 in 0.0 W/m2 CLR
03:18 15.6 °F 9.4 °F 1023.9 in SSW 42.6 mph 42.6 mph 67 % 0.0 in 0.0 W/m2 CLR
03:23 15.6 °F 9.4 °F 1023.9 in SSW 20.9 mph 20.9 mph 67 % 0.0 in 0.0 W/m2 CLR
03:28 15.6 °F 9.7 °F 1023.9 in SSW 35.2 mph 35.2 mph 68 % 0.0 in 0.0 W/m2 CLR
03:33 15.6 °F 9.7 °F 1023.9 in SW 35.2 mph 35.2 mph 68 % 0.0 in 0.0 W/m2 CLR
03:38 15.6 °F 9.7 °F 1024.3 in SSW 24.1 mph 24.1 mph 68 % 0.0 in 0.0 W/m2 CLR
03:43 15.6 °F 9.7 °F 1023.9 in SSW 31.5 mph 31.5 mph 68 % 0.0 in 0.0 W/m2 CLR
03:48 15.6 °F 9.7 °F 1023.9 in SSW 32.2 mph 32.2 mph 68 % 0.0 in 0.0 W/m2 CLR
03:53 15.6 °F 9.7 °F 1023.9 in SSW 32.2 mph 32.2 mph 68 % 0.0 in 0.0 W/m2 CLR
03:58 15.6 °F 9.7 °F 1023.9 in SSE 31.5 mph 31.5 mph 68 % 0.0 in 0.0 W/m2 CLR
04:03 15.0 °F 9.1 °F 1023.9 in South 24.1 mph 24.1 mph 68 % 0.0 in 0.0 W/m2 CLR
04:08 15.0 °F 9.1 °F 1024.3 in SSW 22.2 mph 22.2 mph 68 % 0.0 in 0.0 W/m2 CLR
04:13 15.0 °F 9.3 °F 1024.3 in SSW 18.5 mph 18.5 mph 69 % 0.0 in 0.0 W/m2 CLR
04:18 15.0 °F 9.3 °F 1023.9 in South 18.5 mph 18.5 mph 69 % 0.0 in 0.0 W/m2 CLR
04:23 15.0 °F 9.3 °F 1024.3 in South 18.5 mph 18.5 mph 69 % 0.0 in 0.0 W/m2 CLR
04:28 15.0 °F 9.6 °F 1024.3 in SE 16.7 mph 16.7 mph 70 % 0.0 in 0.0 W/m2 CLR
04:33 15.0 °F 9.6 °F 1023.9 in SSW 20.4 mph 20.4 mph 70 % 0.0 in 0.0 W/m2 CLR
04:38 14.4 °F 9.1 °F 1023.9 in South 16.7 mph 16.7 mph 70 % 0.0 in 0.0 W/m2 CLR
04:43 15.0 °F 9.6 °F 1023.9 in SSW 24.1 mph 24.1 mph 70 % 0.0 in 0.0 W/m2 CLR
04:48 15.0 °F 9.6 °F 1023.9 in South 27.8 mph 27.8 mph 70 % 0.0 in 0.0 W/m2 CLR
04:53 15.0 °F 9.6 °F 1023.9 in SSW 18.5 mph 18.5 mph 70 % 0.0 in 0.0 W/m2 CLR
04:58 15.0 °F 9.6 °F 1023.9 in SSW 24.1 mph 24.1 mph 70 % 0.0 in 0.0 W/m2 CLR
05:03 15.0 °F 9.6 °F 1023.9 in South 22.2 mph 22.2 mph 70 % 0.0 in 0.0 W/m2 CLR
05:08 15.0 °F 9.6 °F 1023.6 in SSW 31.5 mph 31.5 mph 70 % 0.0 in 0.0 W/m2 CLR
05:14 15.0 °F 9.6 °F 1023.6 in SSW 27.8 mph 27.8 mph 70 % 0.0 in 0.0 W/m2 CLR
05:19 15.0 °F 9.3 °F 1023.6 in SSW 29.6 mph 29.6 mph 69 % 0.0 in 0.0 W/m2 CLR
05:23 15.0 °F 9.6 °F 1023.6 in SSW 18.5 mph 18.5 mph 70 % 0.0 in 0.0 W/m2 CLR
05:24 15.0 °F 9.6 °F 1023.6 in SSW 18.5 mph 18.5 mph 70 % 0.0 in 0.0 W/m2 CLR
05:26 15.0 °F 9.6 °F 1023.6 in South 16.7 mph 16.7 mph 70 % 0.0 in 0.0 W/m2 CLR
05:31 15.0 °F 9.6 °F 1023.6 in SSW 29.0 mph 29.0 mph 70 % 0.0 in 0.0 W/m2 CLR
05:34 15.0 °F 9.3 °F 1023.6 in South 22.2 mph 22.2 mph 69 % 0.0 in 0.0 W/m2 CLR
05:36 14.4 °F 9.1 °F 1023.6 in SSW 27.8 mph 27.8 mph 70 % 0.0 in 0.0 W/m2 CLR
05:41 15.0 °F 9.6 °F 1023.6 in SSW 22.2 mph 22.2 mph 70 % 0.0 in 0.0 W/m2 CLR
05:46 15.0 °F 9.3 °F 1023.9 in SSW 25.9 mph 25.9 mph 69 % 0.0 in 0.0 W/m2 CLR
05:51 15.0 °F 9.6 °F 1023.6 in SSW 29.6 mph 29.6 mph 70 % 0.0 in 0.0 W/m2 CLR
05:56 14.4 °F 9.1 °F 1023.9 in South 29.6 mph 29.6 mph 70 % 0.0 in 0.0 W/m2 CLR
06:01 14.4 °F 8.8 °F 1023.9 in SSW 24.1 mph 24.1 mph 69 % 0.0 in 0.0 W/m2 CLR
06:06 14.4 °F 9.1 °F 1023.9 in SSW 27.8 mph 27.8 mph 70 % 0.0 in 0.0 W/m2 CLR
06:11 14.4 °F 9.1 °F 1023.9 in SSW 18.5 mph 18.5 mph 70 % 0.0 in 0.0 W/m2 CLR
06:16 14.4 °F 9.1 °F 1024.3 in SSW 27.8 mph 27.8 mph 70 % 0.0 in 0.0 W/m2 CLR
06:21 14.4 °F 9.1 °F 1023.9 in SW 27.8 mph 27.8 mph 70 % 0.0 in 0.0 W/m2 CLR
06:26 14.4 °F 9.1 °F 1024.3 in SSW 18.5 mph 18.5 mph 70 % 0.0 in 0.0 W/m2 CLR
06:31 14.4 °F 9.2 °F 1023.9 in SSW 20.9 mph 20.9 mph 71 % 0.0 in 0.0 W/m2 CLR
06:36 14.4 °F 9.2 °F 1024.3 in SSW 27.8 mph 27.8 mph 71 % 0.0 in 0.0 W/m2 CLR
06:41 14.4 °F 9.2 °F 1023.9 in SSW 20.9 mph 20.9 mph 71 % 0.0 in 0.0 W/m2 CLR
06:46 14.4 °F 9.2 °F 1024.3 in SSW 27.8 mph 27.8 mph 71 % 0.0 in 0.0 W/m2 CLR
06:51 14.4 °F 9.2 °F 1024.3 in SW 31.5 mph 31.5 mph 71 % 0.0 in 0.0 W/m2 CLR
06:56 13.9 °F 8.7 °F 1024.3 in South 29.6 mph 29.6 mph 71 % 0.0 in 0.0 W/m2 CLR
07:01 13.9 °F 8.7 °F 1024.3 in SSW 20.4 mph 20.4 mph 71 % 0.0 in 0.0 W/m2 CLR
07:06 14.4 °F 9.2 °F 1024.3 in SW 24.1 mph 24.1 mph 71 % 0.0 in 0.0 W/m2 CLR
07:11 13.9 °F 8.7 °F 1024.3 in SSW 22.2 mph 22.2 mph 71 % 0.0 in 0.0 W/m2 CLR
07:21 13.9 °F 8.5 °F 1024.3 in SW 22.2 mph 22.2 mph 70 % 0.0 in 0.0 W/m2 OVC
07:26 13.9 °F 8.7 °F 1024.3 in SSW 24.1 mph 24.1 mph 71 % 0.0 in 0.0 W/m2 OVC
07:31 13.9 °F 8.5 °F 1024.3 in SSW 20.4 mph 20.4 mph 70 % 0.0 in 7.0 W/m2 BKN
07:36 14.4 °F 9.2 °F 1024.3 in SW 27.4 mph 27.4 mph 71 % 0.0 in 11.0 W/m2 BKN
07:41 14.4 °F 9.1 °F 1024.3 in SSW 25.9 mph 25.9 mph 70 % 0.0 in 14.0 W/m2 BKN
07:46 14.4 °F 9.1 °F 1024.3 in SW 29.6 mph 29.6 mph 70 % 0.0 in 18.0 W/m2 BKN
07:51 14.4 °F 9.1 °F 1024.6 in SW 32.2 mph 32.2 mph 70 % 0.0 in 21.0 W/m2 BKN
07:56 14.4 °F 9.1 °F 1024.6 in SSW 31.5 mph 31.5 mph 70 % 0.0 in 26.0 W/m2 BKN
08:01 14.4 °F 9.1 °F 1024.6 in SW 24.1 mph 24.1 mph 70 % 0.0 in 33.0 W/m2 BKN
08:06 14.4 °F 9.1 °F 1024.6 in SW 22.5 mph 22.5 mph 70 % 0.0 in 44.0 W/m2 BKN
08:11 14.4 °F 9.1 °F 1024.6 in SW 27.8 mph 27.8 mph 70 % 0.0 in 56.0 W/m2 SCT
08:16 14.4 °F 8.8 °F 1024.6 in South 29.6 mph 29.6 mph 69 % 0.0 in 69.0 W/m2 SCT
08:21 14.4 °F 8.8 °F 1024.9 in South 20.9 mph 20.9 mph 69 % 0.0 in 72.0 W/m2 FEW
08:26 14.4 °F 8.8 °F 1024.9 in South 27.8 mph 27.8 mph 69 % 0.0 in 84.0 W/m2 FEW
08:31 15.0 °F 9.3 °F 1024.9 in SSW 18.5 mph 18.5 mph 69 % 0.0 in 114.0 W/m2 FEW
08:36 15.0 °F 9.1 °F 1024.9 in SSW 22.2 mph 22.2 mph 68 % 0.0 in 130.0 W/m2 CLR
08:41 15.0 °F 9.1 °F 1024.9 in South 25.9 mph 25.9 mph 68 % 0.0 in 148.0 W/m2 CLR
08:46 15.0 °F 9.1 °F 1024.9 in South 24.1 mph 24.1 mph 68 % 0.0 in 165.0 W/m2 CLR
08:51 15.0 °F 9.1 °F 1024.9 in SSW 22.2 mph 22.2 mph 68 % 0.0 in 51.0 W/m2 CLR
08:56 15.0 °F 9.1 °F 1024.9 in SSW 22.2 mph 22.2 mph 68 % 0.0 in 204.0 W/m2 FEW
08:58 15.0 °F 8.9 °F 1024.9 in SSW 22.2 mph 22.2 mph 67 % 0.0 in 209.0 W/m2 FEW
09:03 15.6 °F 9.4 °F 1024.9 in SSW 22.2 mph 22.2 mph 67 % 0.0 in 225.0 W/m2 CLR
09:08 15.6 °F 9.4 °F 1024.9 in SW 24.1 mph 24.1 mph 67 % 0.0 in 248.0 W/m2 CLR
09:13 16.1 °F 10.0 °F 1024.9 in SW 32.2 mph 32.2 mph 67 % 0.0 in 264.0 W/m2 CLR
09:18 16.1 °F 10.0 °F 1024.9 in SSW 22.2 mph 22.2 mph 67 % 0.0 in 278.0 W/m2 CLR
09:23 16.1 °F 10.0 °F 1024.9 in SSW 31.5 mph 31.5 mph 67 % 0.0 in 292.0 W/m2 CLR
09:28 16.1 °F 10.0 °F 1024.9 in SW 31.5 mph 31.5 mph 67 % 0.0 in 309.0 W/m2 CLR
09:33 16.1 °F 9.8 °F 1024.9 in SSW 25.9 mph 25.9 mph 66 % 0.0 in 325.0 W/m2 CLR
09:38 16.7 °F 10.1 °F 1024.9 in SSW 27.8 mph 27.8 mph 65 % 0.0 in 343.0 W/m2 CLR
09:43 16.7 °F 9.8 °F 1024.9 in SW 24.1 mph 24.1 mph 64 % 0.0 in 359.0 W/m2 CLR
09:48 16.7 °F 9.8 °F 1025.3 in SSW 33.3 mph 33.3 mph 64 % 0.0 in 380.0 W/m2 CLR
09:53 16.7 °F 9.6 °F 1025.3 in SW 35.2 mph 35.2 mph 63 % 0.0 in 394.0 W/m2 CLR
09:58 17.2 °F 10.1 °F 1025.3 in SW 31.5 mph 31.5 mph 63 % 0.0 in 411.0 W/m2 CLR
10:03 17.2 °F 10.1 °F 1025.3 in SW 33.3 mph 33.3 mph 63 % 0.0 in 427.0 W/m2 CLR
10:08 17.2 °F 10.1 °F 1025.3 in SSW 29.0 mph 29.0 mph 63 % 0.0 in 443.0 W/m2 CLR
10:13 17.2 °F 9.9 °F 1025.3 in SW 31.5 mph 31.5 mph 62 % 0.0 in 464.0 W/m2 CLR
10:18 17.8 °F 10.4 °F 1025.3 in WSW 42.6 mph 42.6 mph 62 % 0.0 in 478.0 W/m2 CLR
10:23 17.8 °F 9.9 °F 1025.3 in West 31.5 mph 31.5 mph 60 % 0.0 in 494.0 W/m2 CLR
10:28 17.8 °F 10.2 °F 1025.3 in SSW 37.0 mph 37.0 mph 61 % 0.0 in 522.0 W/m2 CLR
10:33 17.8 °F 9.9 °F 1025.3 in WSW 38.6 mph 38.6 mph 60 % 0.0 in 540.0 W/m2 CLR
10:38 17.8 °F 9.9 °F 1025.3 in SW 31.5 mph 31.5 mph 60 % 0.0 in 403.0 W/m2 CLR
10:43 17.8 °F 9.7 °F 1025.3 in SW 33.3 mph 33.3 mph 59 % 0.0 in 643.0 W/m2 CLR
10:48 17.8 °F 9.9 °F 1025.3 in SW 42.6 mph 42.6 mph 60 % 0.0 in 626.0 W/m2 CLR
10:53 18.3 °F 9.9 °F 1025.3 in SSW 27.8 mph 27.8 mph 58 % 0.0 in 622.0 W/m2 CLR
10:58 18.3 °F 10.2 °F 1025.3 in SW 33.8 mph 33.8 mph 59 % 0.0 in 605.0 W/m2 CLR
11:03 18.3 °F 9.9 °F 1025.3 in SW 31.5 mph 31.5 mph 58 % 0.0 in 626.0 W/m2 CLR
11:08 18.9 °F 10.4 °F 1024.9 in SW 35.2 mph 35.2 mph 58 % 0.0 in 649.0 W/m2 CLR
11:13 18.9 °F 10.4 °F 1024.9 in SSW 25.9 mph 25.9 mph 58 % 0.0 in 666.0 W/m2 CLR
11:18 18.9 °F 9.9 °F 1025.3 in SW 22.5 mph 22.5 mph 56 % 0.0 in 693.0 W/m2 CLR
11:23 19.4 °F 10.2 °F 1025.3 in West 38.9 mph 38.9 mph 55 % 0.0 in 670.0 W/m2 CLR
11:28 19.4 °F 9.9 °F 1024.9 in SSW 29.0 mph 29.0 mph 54 % 0.0 in 666.0 W/m2 CLR
11:33 20.0 °F 10.4 °F 1024.9 in WSW 25.9 mph 25.9 mph 54 % 0.0 in 677.0 W/m2 CLR
11:38 20.0 °F 10.1 °F 1024.9 in WSW 37.0 mph 37.0 mph 53 % 0.0 in 686.0 W/m2 CLR
11:43 20.0 °F 9.8 °F 1024.9 in SW 31.5 mph 31.5 mph 52 % 0.0 in 698.0 W/m2 CLR
11:48 20.0 °F 9.8 °F 1024.9 in SSW 35.2 mph 35.2 mph 52 % 0.0 in 707.0 W/m2 CLR
11:53 20.6 °F 9.8 °F 1024.9 in SW 40.7 mph 40.7 mph 50 % 0.0 in 717.0 W/m2 CLR
11:58 20.0 °F 9.3 °F 1024.9 in WSW 31.5 mph 31.5 mph 50 % 0.0 in 726.0 W/m2 CLR
12:03 20.6 °F 9.4 °F 1024.9 in SW 46.3 mph 46.3 mph 49 % 0.0 in 735.0 W/m2 CLR
12:08 20.6 °F 10.1 °F 1024.9 in WSW 31.5 mph 31.5 mph 51 % 0.0 in 744.0 W/m2 CLR
12:13 20.6 °F 9.8 °F 1024.6 in SW 33.8 mph 33.8 mph 50 % 0.0 in 749.0 W/m2 CLR
12:18 21.1 °F 9.7 °F 1024.6 in WSW 42.6 mph 42.6 mph 48 % 0.0 in 761.0 W/m2 CLR
12:23 20.6 °F 9.4 °F 1024.6 in SW 29.6 mph 29.6 mph 49 % 0.0 in 765.0 W/m2 CLR
12:28 21.7 °F 10.2 °F 1024.6 in SW 42.6 mph 42.6 mph 48 % 0.0 in 772.0 W/m2 CLR
12:33 21.1 °F 9.7 °F 1024.3 in SW 25.9 mph 25.9 mph 48 % 0.0 in 779.0 W/m2 CLR
12:38 21.1 °F 10.3 °F 1024.3 in WSW 22.2 mph 22.2 mph 50 % 0.0 in 788.0 W/m2 CLR
12:43 21.7 °F 10.2 °F 1024.3 in SW 31.5 mph 31.5 mph 48 % 0.0 in 791.0 W/m2 CLR
12:49 21.7 °F 10.2 °F 1024.3 in SW 35.4 mph 35.4 mph 48 % 0.0 in 796.0 W/m2 CLR
12:54 21.7 °F 10.5 °F 1024.3 in SW 29.6 mph 29.6 mph 49 % 0.0 in 798.0 W/m2 CLR
12:59 21.7 °F 10.5 °F 1024.3 in WSW 35.2 mph 35.2 mph 49 % 0.0 in 805.0 W/m2 CLR
13:04 21.7 °F 10.5 °F 1023.9 in SW 31.5 mph 31.5 mph 49 % 0.0 in 810.0 W/m2 CLR
13:09 22.2 °F 10.7 °F 1023.9 in West 29.6 mph 29.6 mph 48 % 0.0 in 819.0 W/m2 CLR
13:14 21.7 °F 10.2 °F 1023.9 in West 37.0 mph 37.0 mph 48 % 0.0 in 823.0 W/m2 CLR
13:19 21.7 °F 10.5 °F 1023.9 in SW 27.4 mph 27.4 mph 49 % 0.0 in 824.0 W/m2 CLR
13:24 21.7 °F 9.8 °F 1023.9 in SW 31.5 mph 31.5 mph 47 % 0.0 in 828.0 W/m2 CLR
13:29 22.2 °F 10.4 °F 1023.6 in WSW 37.0 mph 37.0 mph 47 % 0.0 in 828.0 W/m2 CLR
13:34 21.7 °F 9.8 °F 1023.6 in WSW 40.7 mph 40.7 mph 47 % 0.0 in 833.0 W/m2 CLR
13:39 22.2 °F 10.1 °F 1023.6 in West 33.3 mph 33.3 mph 46 % 0.0 in 835.0 W/m2 CLR
13:44 22.2 °F 9.7 °F 1023.6 in SW 42.6 mph 42.6 mph 45 % 0.0 in 840.0 W/m2 CLR
13:49 22.2 °F 10.1 °F 1023.2 in SW 42.6 mph 42.6 mph 46 % 0.0 in 838.0 W/m2 CLR
13:54 22.2 °F 10.4 °F 1023.2 in WSW 31.5 mph 31.5 mph 47 % 0.0 in 840.0 W/m2 CLR
13:59 22.2 °F 9.7 °F 1023.2 in West 31.5 mph 31.5 mph 45 % 0.0 in 842.0 W/m2 CLR
14:04 22.2 °F 9.7 °F 1023.2 in West 33.8 mph 33.8 mph 45 % 0.0 in 842.0 W/m2 CLR
14:05 22.2 °F 9.1 °F 1023.2 in WSW 38.6 mph 38.6 mph 43 % 0.0 in 844.0 W/m2 CLR
14:10 22.8 °F 9.9 °F 1023.2 in WSW 38.9 mph 38.9 mph 44 % 0.0 in 842.0 W/m2 CLR
14:15 22.8 °F 10.2 °F 1023.2 in West 29.6 mph 29.6 mph 45 % 0.0 in 838.0 W/m2 CLR
14:20 22.8 °F 9.9 °F 1023.2 in West 35.2 mph 35.2 mph 44 % 0.0 in 838.0 W/m2 CLR
14:25 22.8 °F 9.9 °F 1023.2 in SW 37.0 mph 37.0 mph 44 % 0.0 in 837.0 W/m2 CLR
14:30 22.8 °F 9.9 °F 1023.2 in West 33.3 mph 33.3 mph 44 % 0.0 in 838.0 W/m2 CLR
14:35 23.3 °F 10.1 °F 1023.2 in WSW 33.8 mph 33.8 mph 43 % 0.0 in 831.0 W/m2 CLR
14:40 23.3 °F 10.4 °F 1023.2 in WSW 29.0 mph 29.0 mph 44 % 0.0 in 826.0 W/m2 CLR
14:45 23.9 °F 10.2 °F 1023.2 in West 42.6 mph 42.6 mph 42 % 0.0 in 823.0 W/m2 CLR
14:50 23.3 °F 9.7 °F 1023.2 in SW 29.6 mph 29.6 mph 42 % 0.0 in 821.0 W/m2 CLR
14:55 23.9 °F 10.2 °F 1023.2 in SW 42.6 mph 42.6 mph 42 % 0.0 in 817.0 W/m2 CLR
15:00 23.3 °F 9.7 °F 1022.9 in SSW 24.1 mph 24.1 mph 42 % 0.0 in 814.0 W/m2 CLR
15:05 23.9 °F 10.9 °F 1022.9 in WSW 33.8 mph 33.8 mph 44 % 0.0 in 807.0 W/m2 CLR
15:10 23.9 °F 10.9 °F 1022.9 in WSW 27.8 mph 27.8 mph 44 % 0.0 in 800.0 W/m2 CLR
15:15 23.9 °F 10.6 °F 1022.9 in SW 25.9 mph 25.9 mph 43 % 0.0 in 798.0 W/m2 CLR
15:20 23.9 °F 10.6 °F 1022.9 in WSW 31.5 mph 31.5 mph 43 % 0.0 in 789.0 W/m2 CLR
15:25 23.9 °F 10.6 °F 1022.9 in West 33.3 mph 33.3 mph 43 % 0.0 in 784.0 W/m2 CLR
15:30 23.9 °F 10.9 °F 1022.6 in SW 24.1 mph 24.6 mph 44 % 0.0 in 777.0 W/m2 CLR
15:31 23.9 °F 10.6 °F 1022.6 in WSW 31.5 mph 31.5 mph 43 % 0.0 in 777.0 W/m2 CLR
15:36 23.9 °F 10.2 °F 1022.6 in SW 31.5 mph 31.5 mph 42 % 0.0 in 770.0 W/m2 CLR
15:41 23.9 °F 10.9 °F 1022.6 in SW 20.4 mph 20.4 mph 44 % 0.0 in 761.0 W/m2 CLR
15:46 23.9 °F 10.9 °F 1022.6 in West 22.2 mph 22.2 mph 44 % 0.0 in 752.0 W/m2 CLR
15:51 23.9 °F 10.6 °F 1022.6 in WSW 27.8 mph 27.8 mph 43 % 0.0 in 744.0 W/m2 CLR
15:56 23.9 °F 10.6 °F 1022.6 in WSW 33.8 mph 33.8 mph 43 % 0.0 in 735.0 W/m2 CLR
16:01 23.9 °F 10.6 °F 1022.6 in SW 42.6 mph 42.6 mph 43 % 0.0 in 726.0 W/m2 CLR
16:06 23.9 °F 10.9 °F 1022.2 in SW 31.5 mph 31.5 mph 44 % 0.0 in 719.0 W/m2 CLR
16:11 24.4 °F 11.1 °F 1022.2 in WSW 42.6 mph 42.6 mph 43 % 0.0 in 708.0 W/m2 CLR
16:16 24.4 °F 11.1 °F 1022.2 in SW 42.6 mph 42.6 mph 43 % 0.0 in 696.0 W/m2 CLR
16:21 23.9 °F 10.6 °F 1021.9 in WSW 25.9 mph 25.9 mph 43 % 0.0 in 682.0 W/m2 CLR
16:26 24.4 °F 11.1 °F 1021.9 in WSW 35.2 mph 35.2 mph 43 % 0.0 in 670.0 W/m2 CLR
16:31 24.4 °F 10.7 °F 1021.9 in WSW 27.8 mph 27.8 mph 42 % 0.0 in 663.0 W/m2 CLR
16:36 24.4 °F 11.1 °F 1021.9 in WSW 37.0 mph 37.0 mph 43 % 0.0 in 649.0 W/m2 CLR
16:41 24.4 °F 11.1 °F 1021.9 in WSW 27.8 mph 27.8 mph 43 % 0.0 in 636.0 W/m2 CLR
16:46 24.4 °F 11.1 °F 1021.6 in WSW 31.5 mph 31.5 mph 43 % 0.0 in 629.0 W/m2 CLR
16:51 24.4 °F 10.7 °F 1021.6 in SW 33.3 mph 33.3 mph 42 % 0.0 in 619.0 W/m2 CLR
16:56 23.9 °F 10.2 °F 1021.6 in WSW 27.8 mph 27.8 mph 42 % 0.0 in 605.0 W/m2 CLR
17:01 23.9 °F 10.2 °F 1021.6 in SW 22.2 mph 22.2 mph 42 % 0.0 in 591.0 W/m2 CLR
17:06 24.4 °F 10.3 °F 1021.6 in WSW 29.6 mph 29.6 mph 41 % 0.0 in 578.0 W/m2 CLR
17:11 24.4 °F 9.9 °F 1021.2 in WSW 29.6 mph 29.6 mph 40 % 0.0 in 564.0 W/m2 CLR
17:16 24.4 °F 9.6 °F 1021.6 in West 33.3 mph 33.3 mph 39 % 0.0 in 555.0 W/m2 CLR
17:21 24.4 °F 10.3 °F 1021.2 in WSW 27.8 mph 27.8 mph 41 % 0.0 in 543.0 W/m2 CLR
17:26 24.4 °F 9.9 °F 1021.2 in SW 31.5 mph 31.5 mph 40 % 0.0 in 529.0 W/m2 CLR
17:31 24.4 °F 9.9 °F 1021.2 in WSW 30.6 mph 30.6 mph 40 % 0.0 in 504.0 W/m2 CLR
17:36 24.4 °F 9.9 °F 1021.2 in SW 30.6 mph 30.6 mph 40 % 0.0 in 504.0 W/m2 CLR
17:41 24.4 °F 10.3 °F 1021.2 in WSW 20.9 mph 20.9 mph 41 % 0.0 in 487.0 W/m2 CLR
17:46 24.4 °F 10.3 °F 1021.2 in West 24.1 mph 24.1 mph 41 % 0.0 in 468.0 W/m2 CLR
17:51 24.4 °F 9.2 °F 1021.2 in SW 31.5 mph 31.5 mph 38 % 0.0 in 445.0 W/m2 CLR
17:56 24.4 °F 9.9 °F 1021.2 in WSW 27.8 mph 27.8 mph 40 % 0.0 in 311.0 W/m2 CLR
18:01 24.4 °F 9.6 °F 1021.2 in WSW 27.8 mph 27.8 mph 39 % 0.0 in 306.0 W/m2 CLR
18:06 23.9 °F 9.1 °F 1021.2 in SW 18.5 mph 18.5 mph 39 % 0.0 in 371.0 W/m2 CLR
18:11 24.4 °F 9.6 °F 1021.2 in WSW 24.1 mph 24.1 mph 39 % 0.0 in 431.0 W/m2 CLR
18:16 24.4 °F 9.6 °F 1021.2 in WSW 29.6 mph 29.6 mph 39 % 0.0 in 413.0 W/m2 CLR
18:21 24.4 °F 9.9 °F 1020.9 in WSW 22.5 mph 22.5 mph 40 % 0.0 in 373.0 W/m2 CLR
18:26 24.4 °F 10.3 °F 1020.9 in SW 24.1 mph 24.1 mph 41 % 0.0 in 350.0 W/m2 CLR
18:31 23.9 °F 9.8 °F 1020.9 in WSW 31.5 mph 31.5 mph 41 % 0.0 in 330.0 W/m2 CLR
18:36 23.9 °F 10.2 °F 1020.9 in WSW 24.1 mph 24.1 mph 42 % 0.0 in 313.0 W/m2 CLR
18:41 23.9 °F 10.2 °F 1021.2 in WSW 29.6 mph 29.6 mph 42 % 0.0 in 295.0 W/m2 CLR
18:51 23.3 °F 9.3 °F 1020.9 in WSW 33.3 mph 33.3 mph 41 % 0.0 in 258.0 W/m2 CLR
18:56 23.3 °F 9.3 °F 1020.9 in WSW 30.6 mph 30.6 mph 41 % 0.0 in 241.0 W/m2 CLR
19:01 23.3 °F 9.3 °F 1020.9 in SW 24.1 mph 24.1 mph 41 % 0.0 in 221.0 W/m2 CLR
19:06 23.3 °F 9.3 °F 1020.9 in SW 22.2 mph 22.2 mph 41 % 0.0 in 204.0 W/m2 CLR
19:12 23.3 °F 8.9 °F 1020.9 in West 24.1 mph 24.1 mph 40 % 0.0 in 183.0 W/m2 CLR
19:17 23.3 °F 9.3 °F 1020.9 in SW 27.8 mph 27.8 mph 41 % 0.0 in 160.0 W/m2 CLR
19:22 22.8 °F 8.8 °F 1020.9 in SSW 18.5 mph 18.5 mph 41 % 0.0 in 144.0 W/m2 CLR
19:27 22.8 °F 9.2 °F 1020.9 in WSW 25.9 mph 25.9 mph 42 % 0.0 in 127.0 W/m2 CLR
19:32 22.8 °F 9.2 °F 1020.9 in WSW 27.8 mph 27.8 mph 42 % 0.0 in 107.0 W/m2 CLR
19:37 22.2 °F 9.1 °F 1020.9 in WSW 20.9 mph 20.9 mph 43 % 0.0 in 90.0 W/m2 CLR
19:42 22.2 °F 9.1 °F 1020.9 in SW 18.5 mph 18.5 mph 43 % 0.0 in 76.0 W/m2 FEW
19:47 22.2 °F 8.7 °F 1020.9 in SSW 22.2 mph 22.2 mph 42 % 0.0 in 53.0 W/m2 SCT
19:52 22.2 °F 9.1 °F 1020.9 in SSW 24.1 mph 24.1 mph 43 % 0.0 in 46.0 W/m2 SCT
19:57 22.2 °F 9.1 °F 1020.9 in SW 22.2 mph 22.2 mph 43 % 0.0 in 35.0 W/m2 BKN
20:02 22.2 °F 9.1 °F 1020.9 in SW 25.9 mph 25.9 mph 43 % 0.0 in 25.0 W/m2 BKN
20:07 21.7 °F 8.9 °F 1020.9 in SW 20.4 mph 20.4 mph 44 % 0.0 in 14.0 W/m2 BKN
20:12 21.7 °F 9.2 °F 1020.9 in SW 9.7 mph 10.6 mph 45 % 0.0 in 11.0 W/m2 BKN
20:17 21.1 °F 9.1 °F 1020.9 in SW 5.6 mph 5.6 mph 46 % 0.0 in 9.0 W/m2 BKN
20:22 20.6 °F 8.6 °F 1020.9 in SW 5.6 mph 5.6 mph 46 % 0.0 in 5.0 W/m2 BKN
20:27 20.6 °F 8.8 °F 1020.9 in SW 13.0 mph 13.0 mph 47 % 0.0 in 0.0 W/m2 OVC
20:32 20.0 °F 8.3 °F 1020.9 in SW 5.6 mph 5.6 mph 47 % 0.0 in 0.0 W/m2 OVC
20:37 19.4 °F 7.8 °F 1020.9 in SSW 3.7 mph   47 % 0.0 in 0.0 W/m2 OVC
20:42 18.9 °F 7.6 °F 1021.2 in South 3.7 mph   48 % 0.0 in 0.0 W/m2 CLR
20:47 18.9 °F 7.6 °F 1021.2 in Calm     48 % 0.0 in 0.0 W/m2 CLR
20:52 18.9 °F 7.9 °F 1021.2 in Calm     49 % 0.0 in 0.0 W/m2 CLR
20:57 18.9 °F 7.9 °F 1021.2 in SSW 5.6 mph 5.6 mph 49 % 0.0 in 0.0 W/m2 CLR
21:02 18.3 °F 7.7 °F 1021.2 in Calm     50 % 0.0 in 0.0 W/m2 CLR
21:07 17.8 °F 7.2 °F 1021.6 in SSW 7.4 mph 7.4 mph 50 % 0.0 in 0.0 W/m2 CLR
21:12 17.2 °F 6.7 °F 1021.6 in SSW 3.7 mph 3.7 mph 50 % 0.0 in 0.0 W/m2 CLR
21:17 16.7 °F 6.5 °F 1021.6 in Calm     51 % 0.0 in 0.0 W/m2 CLR
21:22 16.1 °F 5.9 °F 1021.6 in Calm     51 % 0.0 in 0.0 W/m2 CLR
21:27 15.6 °F 5.4 °F 1021.6 in Calm     51 % 0.0 in 0.0 W/m2 CLR
21:32 15.0 °F 4.9 °F 1021.6 in Calm     51 % 0.0 in 0.0 W/m2 CLR
21:37 14.4 °F 4.7 °F 1021.6 in Calm     52 % 0.0 in 0.0 W/m2 CLR
21:42 14.4 °F 5.0 °F 1021.6 in Calm     53 % 0.0 in 0.0 W/m2 CLR
21:47 13.9 °F 4.7 °F 1021.9 in Calm     54 % 0.0 in 0.0 W/m2 CLR
21:52 13.9 °F 4.7 °F 1021.9 in Calm     54 % 0.0 in 0.0 W/m2 CLR
21:57 13.3 °F 4.5 °F 1021.9 in Calm     55 % 0.0 in 0.0 W/m2 CLR
22:02 13.3 °F 4.5 °F 1021.9 in Calm     55 % 0.0 in 0.0 W/m2 CLR
22:07 13.3 °F 4.7 °F 1021.9 in Calm     56 % 0.0 in 0.0 W/m2 CLR
22:12 13.3 °F 5.0 °F 1021.9 in Calm     57 % 0.0 in 0.0 W/m2 CLR
22:17 13.9 °F 5.8 °F 1021.9 in Calm     58 % 0.0 in 0.0 W/m2 CLR
22:22 13.9 °F 6.5 °F 1021.9 in Calm     61 % 0.0 in 0.0 W/m2 CLR
22:27 13.9 °F 6.9 °F 1021.9 in SSW 3.2 mph 3.2 mph 63 % 0.0 in 0.0 W/m2 CLR
22:32 13.9 °F 6.9 °F 1021.9 in Calm     63 % 0.0 in 0.0 W/m2 CLR
22:37 13.3 °F 6.4 °F 1021.9 in Calm     63 % 0.0 in 0.0 W/m2 CLR
22:42 13.3 °F 6.7 °F 1021.9 in Calm     64 % 0.0 in 0.0 W/m2 CLR
22:47 13.3 °F 6.7 °F 1021.9 in Calm     64 % 0.0 in 0.0 W/m2 CLR
22:52 12.8 °F 6.1 °F 1022.2 in Calm     64 % 0.0 in 0.0 W/m2 CLR
22:57 12.8 °F 6.3 °F 1022.2 in Calm     65 % 0.0 in 0.0 W/m2 CLR
23:02 12.2 °F 5.8 °F 1022.2 in Calm     65 % 0.0 in 0.0 W/m2 CLR
23:07 12.2 °F 5.8 °F 1022.2 in Calm     65 % 0.0 in 0.0 W/m2 CLR
23:12 12.2 °F 6.1 °F 1022.2 in SSE 13.0 mph 13.0 mph 66 % 0.0 in 0.0 W/m2 CLR
23:17 12.2 °F 6.1 °F 1022.2 in South 7.4 mph 7.4 mph 66 % 0.0 in 0.0 W/m2 CLR
23:22 12.8 °F 6.3 °F 1022.2 in South 7.4 mph 7.4 mph 65 % 0.0 in 0.0 W/m2 CLR
23:27 13.3 °F 6.7 °F 1022.2 in South 7.4 mph 7.4 mph 64 % 0.0 in 0.0 W/m2 CLR
23:32 13.3 °F 6.7 °F 1022.2 in SSE 9.7 mph 9.7 mph 64 % 0.0 in 0.0 W/m2 CLR
23:37 13.3 °F 6.7 °F 1022.2 in Calm     64 % 0.0 in 0.0 W/m2 CLR
23:42 13.3 °F 6.9 °F 1022.6 in Calm     65 % 0.0 in 0.0 W/m2 CLR
23:47 12.8 °F 6.8 °F 1022.2 in Calm     67 % 0.0 in 0.0 W/m2 CLR
23:52 12.8 °F 6.8 °F 1022.2 in Calm     67 % 0.0 in 0.0 W/m2 CLR
23:57 12.8 °F 6.8 °F 1022.6 in Calm     67 % 0.0 in 0.0 W/m2 CLR
Lo Temps de Massalio
Compliments of Weather Underground - 1.25 mb